createdAt,value
2022-11-08T00:01:10.803Z,5.43
2022-11-08T00:06:10.795Z,5.31
2022-11-08T00:11:10.793Z,5.25
2022-11-08T00:16:10.798Z,5.18
2022-11-08T00:21:10.801Z,5.25
2022-11-08T00:26:10.784Z,5.12
2022-11-08T00:31:10.791Z,5.06
2022-11-08T00:36:10.787Z,5.06
2022-11-08T00:41:10.779Z,4.93
2022-11-08T00:46:10.785Z,4.87
2022-11-08T00:51:10.774Z,4.87
2022-11-08T00:56:10.766Z,4.68
2022-11-08T01:01:10.907Z,4.62
2022-11-08T01:06:10.760Z,4.75
2022-11-08T01:11:10.772Z,4.81
2022-11-08T01:16:10.760Z,4.68
2022-11-08T01:21:10.769Z,4.68
2022-11-08T01:26:10.746Z,4.56
2022-11-08T01:31:10.750Z,4.12
2022-11-08T01:36:10.746Z,4.18
2022-11-08T01:41:10.738Z,3.81
2022-11-08T01:46:10.740Z,4.06
2022-11-08T01:51:10.747Z,3.93
2022-11-08T01:56:10.731Z,3.75
2022-11-08T02:01:10.814Z,3.5
2022-11-08T02:06:10.718Z,3.68
2022-11-08T02:11:10.721Z,3.68
2022-11-08T02:16:10.723Z,3.68
2022-11-08T02:21:10.729Z,3.75
2022-11-08T02:26:10.718Z,3.37
2022-11-08T02:31:10.734Z,3.25
2022-11-08T02:36:10.702Z,3.56
2022-11-08T02:41:10.715Z,3.37
2022-11-08T02:46:10.703Z,3.25
2022-11-08T02:51:10.696Z,3.12
2022-11-08T02:56:10.701Z,3
2022-11-08T03:01:10.737Z,2.93
2022-11-08T03:06:10.719Z,3.06
2022-11-08T03:16:10.683Z,3.37
2022-11-08T03:21:10.688Z,3.06
2022-11-08T03:46:10.705Z,2.68
2022-11-08T03:56:10.654Z,2.68
2022-11-08T04:01:10.734Z,2.81
2022-11-08T04:21:10.649Z,2.56
2022-11-08T04:41:10.660Z,2.62
2022-11-08T04:46:10.680Z,2.68
2022-11-08T04:51:10.632Z,2.56
2022-11-08T04:56:10.640Z,2.62
2022-11-08T05:01:10.692Z,2.68
2022-11-08T05:06:10.636Z,2.56
2022-11-08T05:11:10.630Z,2.68
2022-11-08T05:16:10.629Z,3.25
2022-11-08T05:21:10.621Z,3.12
2022-11-08T05:26:10.615Z,3.18
2022-11-08T05:31:10.640Z,3.06
2022-11-08T05:36:10.624Z,3
2022-11-08T05:41:10.616Z,3.37
2022-11-08T05:46:10.605Z,3.06
2022-11-08T05:51:10.610Z,3.43
2022-11-08T05:56:10.612Z,3.5
2022-11-08T06:01:10.607Z,3.43
2022-11-08T06:06:10.591Z,3.25
2022-11-08T06:11:10.598Z,3.37
2022-11-08T06:16:10.585Z,3.18
2022-11-08T06:21:10.588Z,3.12
2022-11-08T06:26:10.593Z,3
2022-11-08T06:31:10.603Z,3
2022-11-08T06:36:10.605Z,2.87
2022-11-08T06:41:10.575Z,3.06
2022-11-08T06:46:10.587Z,3.62
2022-11-08T06:51:10.572Z,3.56
2022-11-08T06:56:10.566Z,3.87
2022-11-08T07:01:10.692Z,4.37
2022-11-08T07:06:10.567Z,4.56
2022-11-08T07:11:10.569Z,4.81
2022-11-08T07:16:10.579Z,5
2022-11-08T07:21:10.553Z,5.25
2022-11-08T07:26:10.553Z,5.56
2022-11-08T07:31:10.543Z,5.81
2022-11-08T07:36:10.553Z,6.06
2022-11-08T07:41:10.545Z,6.25
2022-11-08T07:46:10.546Z,6.43
2022-11-08T07:51:10.545Z,6.93
2022-11-08T07:56:10.526Z,6.75
2022-11-08T08:01:10.552Z,7
2022-11-08T08:06:10.528Z,7.12
2022-11-08T08:11:10.520Z,7.18
2022-11-08T08:16:10.521Z,7.43
2022-11-08T08:21:10.505Z,7.37
2022-11-08T08:26:10.512Z,7.31
2022-11-08T08:31:10.503Z,7.68
2022-11-08T08:36:10.535Z,7.93
2022-11-08T08:41:10.499Z,8
2022-11-08T08:46:10.495Z,8.31
2022-11-08T08:51:10.470Z,8.43
2022-11-08T08:56:10.480Z,8.56
2022-11-08T09:06:10.472Z,8.62
2022-11-08T09:11:10.464Z,8.81
2022-11-08T09:16:10.468Z,8.93
2022-11-08T09:21:10.455Z,9.18
2022-11-08T09:26:10.451Z,9.18
2022-11-08T09:31:10.455Z,9.18
2022-11-08T09:36:10.441Z,9.5
2022-11-08T09:41:10.429Z,9.43
2022-11-08T09:46:10.444Z,9.68
2022-11-08T09:51:10.416Z,9.87
2022-11-08T09:56:10.413Z,9.87
2022-11-08T10:01:10.431Z,9.68
2022-11-08T10:06:10.431Z,9.56
2022-11-08T10:11:10.436Z,10.31
2022-11-08T10:16:10.399Z,10.31
2022-11-08T10:21:10.397Z,10.5
2022-11-08T10:26:10.399Z,10.56
2022-11-08T10:31:10.391Z,10.68
2022-11-08T10:36:10.393Z,11.18
2022-11-08T10:41:10.381Z,11.12
2022-11-08T10:46:10.388Z,11.31
2022-11-08T10:51:10.361Z,12.06
2022-11-08T10:56:10.353Z,12.18
2022-11-08T11:01:10.372Z,12.31
2022-11-08T11:06:10.341Z,12.06
2022-11-08T11:11:10.337Z,11.93
2022-11-08T11:16:10.346Z,11.87
2022-11-08T11:21:10.332Z,11.68
2022-11-08T11:26:10.337Z,11.5
2022-11-08T11:31:10.330Z,11.25
2022-11-08T11:36:13.387Z,11
2022-11-08T11:41:11.151Z,11.12
2022-11-08T11:46:10.316Z,11.43
2022-11-08T11:51:10.540Z,12.06
2022-11-08T11:56:10.295Z,12
2022-11-08T12:01:14.159Z,12.5
2022-11-08T12:06:10.296Z,12.5
2022-11-08T12:11:10.303Z,12.56
2022-11-08T12:16:10.280Z,12.56
2022-11-08T12:21:10.273Z,12.93
2022-11-08T12:26:10.265Z,12.81
2022-11-08T12:31:10.286Z,12.75
2022-11-08T12:36:10.255Z,12.68
2022-11-08T12:41:10.254Z,12.93
2022-11-08T12:46:10.281Z,12.93
2022-11-08T12:51:10.248Z,13
2022-11-08T12:56:10.254Z,13
2022-11-08T13:01:10.352Z,13
2022-11-08T13:06:10.216Z,13.06
2022-11-08T13:11:10.209Z,13.06
2022-11-08T13:16:10.224Z,13.12
2022-11-08T13:21:10.201Z,13.06
2022-11-08T13:26:10.193Z,12.93
2022-11-08T13:31:10.199Z,13.06
2022-11-08T13:36:10.174Z,12.68
2022-11-08T13:41:10.185Z,12.62
2022-11-08T13:46:10.183Z,12.43
2022-11-08T13:51:10.170Z,12.06
2022-11-08T13:56:10.178Z,11.68
2022-11-08T14:01:10.228Z,11.75
2022-11-08T14:06:10.160Z,11.31
2022-11-08T14:11:10.183Z,11
2022-11-08T14:16:10.131Z,10.56
2022-11-08T14:21:10.140Z,10.37
2022-11-08T14:26:10.169Z,10.06
2022-11-08T14:31:10.130Z,10
2022-11-08T14:36:10.148Z,10.06
2022-11-08T14:41:10.147Z,9.87
2022-11-08T14:46:10.122Z,9.68
2022-11-08T14:51:10.121Z,9.62
2022-11-08T14:56:10.115Z,9.56
2022-11-08T15:01:10.199Z,9.75
2022-11-08T15:06:14.004Z,9.31
2022-11-08T15:11:10.082Z,8.93
2022-11-08T15:16:10.083Z,8.56
2022-11-08T15:21:10.068Z,8.56
2022-11-08T15:26:10.850Z,8.18
2022-11-08T15:31:10.063Z,8.06
2022-11-08T15:36:10.073Z,7.93
2022-11-08T15:41:10.047Z,7.87
2022-11-08T15:46:10.062Z,7.62
2022-11-08T15:51:10.076Z,7.43
2022-11-08T15:56:10.052Z,7.37
2022-11-08T16:01:10.076Z,7.25
2022-11-08T16:06:10.046Z,6.93
2022-11-08T16:11:10.043Z,6.75
2022-11-08T16:16:10.018Z,6.62
2022-11-08T16:21:10.024Z,6.56
2022-11-08T16:26:10.032Z,6.31
2022-11-08T16:31:10.015Z,6.5
2022-11-08T16:36:10.010Z,6.62
2022-11-08T16:41:10.014Z,6.68
2022-11-08T16:46:10.005Z,6.37
2022-11-08T16:51:09.995Z,6.25
2022-11-08T16:56:10.010Z,6.06
2022-11-08T17:01:10.660Z,6.25
2022-11-08T17:06:09.988Z,5.93
2022-11-08T17:11:09.996Z,5.87
2022-11-08T17:16:09.988Z,5.87
2022-11-08T17:21:30.186Z,5.56
2022-11-08T17:26:09.975Z,5.68
2022-11-08T17:31:09.971Z,5.81
2022-11-08T17:36:09.963Z,5.81
2022-11-08T17:41:09.985Z,5.43
2022-11-08T17:46:09.963Z,5.5
2022-11-08T17:51:09.959Z,5.43
2022-11-08T17:56:09.960Z,5.31
2022-11-08T18:11:09.994Z,5.31
2022-11-08T18:16:09.939Z,5.12
2022-11-08T18:21:09.938Z,5.25
2022-11-08T18:26:09.939Z,5.12
2022-11-08T18:31:09.944Z,5.37
2022-11-08T18:41:09.921Z,5.25
2022-11-08T18:46:09.913Z,5.37
2022-11-08T19:31:09.878Z,6.37
2022-11-08T19:36:09.883Z,6.37
2022-11-08T19:41:09.877Z,6.5
2022-11-08T19:46:09.876Z,6.5
2022-11-08T19:51:09.896Z,6.43
2022-11-08T19:56:09.875Z,6.81
2022-11-08T20:01:09.875Z,6.56
2022-11-08T20:06:09.849Z,6.62
2022-11-08T20:11:09.888Z,6.56
2022-11-08T20:16:09.859Z,6.62
2022-11-08T20:21:09.839Z,6.81
2022-11-08T20:26:09.852Z,7.06
2022-11-08T20:31:09.823Z,7.37
2022-11-08T20:36:09.819Z,7.31
2022-11-08T20:41:09.841Z,7.56
2022-11-08T20:46:09.819Z,7.12
2022-11-08T20:51:09.831Z,7.31
2022-11-08T20:56:09.815Z,7.43
2022-11-08T21:01:09.812Z,7.56
2022-11-08T21:06:09.813Z,7.62
2022-11-08T21:11:09.864Z,7.62
2022-11-08T21:16:28.510Z,7.87
2022-11-08T21:21:09.790Z,7.81
2022-11-08T21:26:09.800Z,7.93
2022-11-08T21:31:09.788Z,7.62
2022-11-08T21:36:09.792Z,7.87
2022-11-08T21:41:09.795Z,7.68
2022-11-08T21:46:09.767Z,7.5
2022-11-08T21:51:09.772Z,7.5
2022-11-08T21:56:09.767Z,7.5
2022-11-08T22:01:09.828Z,7.06
2022-11-08T22:06:09.756Z,6.93
2022-11-08T22:11:09.748Z,7.06
2022-11-08T22:16:09.767Z,7
2022-11-08T22:21:09.743Z,6.93
2022-11-08T22:26:09.737Z,6.5
2022-11-08T22:31:09.731Z,6.43
2022-11-08T22:36:09.729Z,6.5
2022-11-08T22:41:09.882Z,6.43
2022-11-08T22:46:09.706Z,6.5
2022-11-08T22:51:09.707Z,6.5
2022-11-08T22:56:11.420Z,6.56
2022-11-08T23:16:09.728Z,5.93
2022-11-08T23:21:09.688Z,5.75
2022-11-08T23:26:09.675Z,5.87
2022-11-08T23:31:09.681Z,5.62
2022-11-08T23:36:09.680Z,5.75
2022-11-08T23:41:09.681Z,5.62
2022-11-08T23:46:09.696Z,5.81
2022-11-08T23:51:09.662Z,5.75
2022-11-08T23:56:09.657Z,5.68
